福島 の空港の天気 - METARとTAF

福島空港 ( RJSF / FKS ) - 福島県玉川村
飛行場実況気象(Metar)
観測時間10/18 12:00 JST (10/18 03:00 UTC)
風向・風速不定 2m/s
視程10km以上
天気現象
少しの雲 雲底高度 910m
気温16℃
湿度68%
気圧1016hPa
METARRJSF 180300Z VRB03KT 9999 FEW030 16/10 Q1016
過去の天気等 Google飛行場航空写真 Wunderground天気予報

過去48時間のMETAR

飛行場予報(TAF)
発表時間: 10/18 08:05 JST (10/17 23:05 UTC)
予報対象時間: 18日9時 JST ~ 19日15時 JST
風向・風速北北西 4m/s
視程10km以上
少しの雲 雲底高度 910m
18日9時 JST ~ 18日10時 JST に一時的に
視程1500m
天気現象もや
少しの雲 雲底高度 60m
全天の8割程度の雲 雲底高度 150m
19日6時 JST ~ 19日12時 JST に一時的に
視程3000m
天気現象弱い雨 もや
少しの雲 雲底高度 150m
全天の8割程度の雲 雲底高度 240m
全天の8割程度の雲 雲底高度 610m
TAF RJSF 172305Z 1800/1906 34008KT 9999 FEW030
TEMPO 1800/1801 1500 BR FEW002 BKN005
TEMPO 1821/1903 3000 -RA BR FEW005 BKN008 BKN020
日本の空港のMETAR・TAFへのリンク

RJTT 東京国際空港
RJAA 新東京国際空港
RJBB 関西国際空港
RJOO 大阪空港
RJGG 中部国際空港
RJCC 新千歳空港
RJFF 福岡空港
ROAH 那覇空港


RJEC 旭川空港
RJCH 函館空港
RJCK 釧路空港
RJCM 女満別空港
RJCB 帯広空港
RJSA 青森空港
RJSS 仙台空港
RJSK 秋田空港
RJSF 福島空港
RJAH 茨城空港
RJSN 新潟空港
RJNT 富山空港
RJNK 小松飛行場
RJNS 静岡空港
RJOH 美保飛行場
RJOC 出雲空港
RJOB 岡山空港
RJOA 広島空港
RJOI 岩国飛行場
RJOT 高松空港
RJOM 松山空港
RJOK 高知空港
RJFR 北九州空港
RJFT 熊本空港
RJFU 長崎空港
RJFS 佐賀空港
RJFO 大分空港
RJFM 宮崎空港
RJFK 鹿児島空港
ROIG 石垣島空港
RJTY 横田飛行場
ROTM 普天間飛行場
RODN 嘉手納飛行場